Davao, Philippines
Current Conditions -  °F | °C
As of 6:00 PM on Thursday 29 Jan 2015 (Local Time) from RPMD Reporting Station
Scattered Clouds Scattered Clouds  
Wind Chill: 82°   Ceiling: Unl
Heat Index: 89°   Visibility: 6mi
Dew Point: 75°   Wind: 2mph
Humidity: 79%   Direction: NA
Pressure: 29.8"   Gusts: NA
Location:  7.11°N, 125.63°E
Report Text: RPMD 291000Z VRB02KT 9999 SCT016 SCT290 28/24 Q1009 RMK A2980
Loading
Personal Weather Stations






























Interactive Weather Map New forecast layout! Learn more

10-Day Weather Forecast

Advertisements
Track Severe Weather on mobile